Time;durP1;ratioP1;P1;durP2;ratioP2;P2;SDS_P1;SDS_P2;PMS_P1;PMS_P2;Temp;Humidity;BMP_temperature;BMP_pressure;BME280_temperature;BME280_humidity;BME280_pressure;Samples;Min_cycle;Max_cycle;Signal;HPM_P1;HPM_P2
2023/09/03 00:02:36;;;;;;;4.17;2.67;;;;;;;;;;5097255;28;20214;-74
2023/09/03 00:05:49;;;;;;;3.80;2.47;;;;;;;;;;5097468;28;20171;-73
2023/09/03 00:08:53;;;;;;;3.00;2.40;;;;;;;;;;5097204;28;20630;-73
2023/09/03 00:11:57;;;;;;;3.47;2.73;;;;;;;;;;5096931;28;20198;-73
2023/09/03 00:15:01;;;;;;;3.73;2.60;;;;;;;;;;5097049;28;20182;-74
2023/09/03 00:18:06;;;;;;;2.57;2.33;;;;;;;;;;5096974;28;20179;-73
2023/09/03 00:21:10;;;;;;;3.47;2.50;;;;;;;;;;5097154;28;20175;-73
2023/09/03 00:24:14;;;;;;;2.70;2.40;;;;;;;;;;5095853;28;20210;-73
2023/09/03 00:27:18;;;;;;;3.13;2.60;;;;;;;;;;5096911;28;20533;-73
2023/09/03 00:30:22;;;;;;;2.80;2.50;;;;;;;;;;5096992;28;20182;-73
2023/09/03 00:33:28;;;;;;;4.03;2.93;;;;;;;;;;5096431;28;20222;-73
2023/09/03 00:36:32;;;;;;;3.43;2.53;;;;;;;;;;5096742;28;20175;-73
2023/09/03 00:39:36;;;;;;;3.57;3.07;;;;;;;;;;5095738;28;20183;-73
2023/09/03 00:42:40;;;;;;;4.47;2.63;;;;;;;;;;5096474;28;20214;-73
2023/09/03 00:45:46;;;;;;;4.40;2.90;;;;;;;;;;5095811;28;20183;-73
2023/09/03 00:48:51;;;;;;;3.90;2.77;;;;;;;;;;5096603;28;20191;-73
2023/09/03 00:51:56;;;;;;;4.63;3.00;;;;;;;;;;5096080;28;20562;-73
2023/09/03 00:55:00;;;;;;;6.67;2.97;;;;;;;;;;5095483;28;20179;-73
2023/09/03 00:58:06;;;;;;;4.33;3.20;;;;;;;;;;5095350;28;20179;-73
2023/09/03 01:01:11;;;;;;;3.77;3.00;;;;;;;;;;5096398;28;20179;-73
2023/09/03 01:04:15;;;;;;;3.67;2.73;;;;;;;;;;5095042;28;20210;-73
2023/09/03 01:07:19;;;;;;;4.30;2.73;;;;;;;;;;5083408;28;20534;-73
2023/09/03 01:10:29;;;;;;;4.43;2.63;;;;;;;;;;5094860;28;20547;-73
2023/09/03 01:14:00;;;;;;;7.43;2.60;;;;;;;;;;5095202;28;20222;-73
2023/09/03 01:17:46;;;;;;;3.33;2.77;;;;;;;;;;5094991;28;20531;-73
2023/09/03 01:21:11;;;;;;;2.90;2.47;;;;;;;;;;5095002;28;20175;-73
2023/09/03 01:24:47;;;;;;;4.80;2.60;;;;;;;;;;5095184;28;20198;-73
2023/09/03 01:28:09;;;;;;;2.83;2.53;;;;;;;;;;5095901;28;20187;-73
2023/09/03 01:31:19;;;;;;;3.13;2.40;;;;;;;;;;5094750;28;20179;-73
2023/09/03 01:34:24;;;;;;;6.53;2.57;;;;;;;;;;5094752;28;20176;-72
2023/09/03 01:37:30;;;;;;;4.60;2.77;;;;;;;;;;5095633;28;20179;-73
2023/09/03 01:40:34;;;;;;;4.27;2.90;;;;;;;;;;5094772;28;20179;-73
2023/09/03 01:43:38;;;;;;;6.40;3.03;;;;;;;;;;5095177;28;20210;-73
2023/09/03 01:46:50;;;;;;;4.20;2.80;;;;;;;;;;5094790;28;20179;-73
2023/09/03 01:49:59;;;;;;;4.53;2.93;;;;;;;;;;5095438;28;20187;-73
2023/09/03 01:53:12;;;;;;;5.90;2.90;;;;;;;;;;5094301;28;20219;-73
2023/09/03 01:56:21;;;;;;;5.93;2.80;;;;;;;;;;5094523;28;20175;-73
2023/09/03 01:59:42;;;;;;;4.20;3.30;;;;;;;;;;5094150;28;20179;-73
2023/09/03 02:02:48;;;;;;;2.93;2.57;;;;;;;;;;5082534;28;20547;-73
2023/09/03 02:05:52;;;;;;;5.10;2.70;;;;;;;;;;5094032;28;20657;-73
2023/09/03 02:08:57;;;;;;;4.67;3.00;;;;;;;;;;5094222;28;20179;-73
2023/09/03 02:12:02;;;;;;;3.23;2.57;;;;;;;;;;5093811;28;20175;-73
2023/09/03 02:15:06;;;;;;;4.30;2.97;;;;;;;;;;5094939;28;20178;-73
2023/09/03 02:18:10;;;;;;;3.03;2.63;;;;;;;;;;5093859;28;20649;-73
2023/09/03 02:21:14;;;;;;;5.13;2.87;;;;;;;;;;5081746;28;20175;-73
2023/09/03 02:24:19;;;;;;;2.53;2.30;;;;;;;;;;5093643;28;20171;-73
2023/09/03 02:27:23;;;;;;;3.80;2.97;;;;;;;;;;5093660;28;20175;-73
2023/09/03 02:30:27;;;;;;;3.27;2.60;;;;;;;;;;5093626;28;20171;-73
2023/09/03 02:33:31;;;;;;;3.13;2.60;;;;;;;;;;5093608;28;20222;-72
2023/09/03 02:36:36;;;;;;;4.67;2.63;;;;;;;;;;5094727;28;20179;-73
2023/09/03 02:39:41;;;;;;;4.23;2.50;;;;;;;;;;5093518;28;20178;-73
2023/09/03 02:42:45;;;;;;;3.00;2.70;;;;;;;;;;5093393;28;20206;-73
2023/09/03 02:45:49;;;;;;;4.43;3.03;;;;;;;;;;5093374;28;20638;-73
2023/09/03 02:48:53;;;;;;;3.27;2.93;;;;;;;;;;5093823;28;20725;-73
2023/09/03 02:51:58;;;;;;;3.33;2.80;;;;;;;;;;5093136;28;20175;-73
2023/09/03 02:55:02;;;;;;;5.70;2.87;;;;;;;;;;5093915;28;20637;-72
2023/09/03 02:58:07;;;;;;;4.87;3.27;;;;;;;;;;5094142;28;20183;-73
2023/09/03 03:01:13;;;;;;;4.77;2.70;;;;;;;;;;5094235;28;20187;-73
2023/09/03 03:04:17;;;;;;;5.07;3.20;;;;;;;;;;5093041;28;20650;-73
2023/09/03 03:07:21;;;;;;;8.03;3.03;;;;;;;;;;5093007;28;20171;-73
2023/09/03 03:10:25;;;;;;;7.57;3.33;;;;;;;;;;5092683;28;20198;-73
2023/09/03 03:13:30;;;;;;;4.73;2.90;;;;;;;;;;5093202;28;20218;-73
2023/09/03 03:16:34;;;;;;;3.70;2.50;;;;;;;;;;5093623;28;20178;-72
2023/09/03 03:19:48;;;;;;;5.50;2.83;;;;;;;;;;5092736;28;20183;-73
2023/09/03 03:22:52;;;;;;;3.30;2.77;;;;;;;;;;5092803;28;20214;-72
2023/09/03 03:25:57;;;;;;;10.57;2.80;;;;;;;;;;5092676;28;20182;-73
2023/09/03 03:29:01;;;;;;;6.63;2.60;;;;;;;;;;5093709;28;20519;-73
2023/09/03 03:32:08;;;;;;;3.30;2.87;;;;;;;;;;5091976;28;20171;-73
2023/09/03 03:35:16;;;;;;;5.93;2.87;;;;;;;;;;5092825;28;20179;-73
2023/09/03 03:38:20;;;;;;;3.80;2.87;;;;;;;;;;5093698;28;20178;-73
2023/09/03 03:41:25;;;;;;;3.70;3.07;;;;;;;;;;5092730;28;20179;-73
2023/09/03 03:44:31;;;;;;;3.33;3.03;;;;;;;;;;5092735;28;20174;-73
2023/09/03 03:47:36;;;;;;;3.57;2.90;;;;;;;;;;5092642;28;20633;-73
2023/09/03 03:50:40;;;;;;;3.93;2.77;;;;;;;;;;5093130;28;20677;-74
2023/09/03 03:53:45;;;;;;;3.40;2.77;;;;;;;;;;5092436;28;20214;-73
2023/09/03 03:56:49;;;;;;;5.70;2.90;;;;;;;;;;5092654;28;20625;-72
2023/09/03 03:59:53;;;;;;;6.80;3.13;;;;;;;;;;5092465;28;20183;-73
2023/09/03 04:02:59;;;;;;;5.73;2.90;;;;;;;;;;5092277;28;20210;-73
2023/09/03 04:06:03;;;;;;;4.30;2.70;;;;;;;;;;5092296;28;20523;-73
2023/09/03 04:09:07;;;;;;;10.13;3.67;;;;;;;;;;5092366;28;20523;-73
2023/09/03 04:12:11;;;;;;;9.57;3.33;;;;;;;;;;5092452;28;20214;-73
2023/09/03 04:15:15;;;;;;;12.07;3.37;;;;;;;;;;5092681;28;20179;-73
2023/09/03 04:18:20;;;;;;;22.00;3.83;;;;;;;;;;5092928;28;20175;-73
2023/09/03 04:21:25;;;;;;;5.30;3.13;;;;;;;;;;5092114;28;20179;-73
2023/09/03 04:24:30;;;;;;;5.53;2.90;;;;;;;;;;5092132;28;20167;-73
2023/09/03 04:27:35;;;;;;;4.50;3.30;;;;;;;;;;5092414;28;20510;-72
2023/09/03 04:30:39;;;;;;;5.27;2.70;;;;;;;;;;5080718;28;20179;-73
2023/09/03 04:33:45;;;;;;;4.17;2.80;;;;;;;;;;5091900;28;20223;-73
2023/09/03 04:36:50;;;;;;;11.10;2.67;;;;;;;;;;5092237;28;20519;-73
2023/09/03 04:39:54;;;;;;;16.70;3.10;;;;;;;;;;5091769;28;20526;-72
2023/09/03 04:42:57;;;;;;;6.40;2.53;;;;;;;;;;5093093;28;20587;-73
2023/09/03 04:46:03;;;;;;;15.40;3.73;;;;;;;;;;5095587;28;20179;-72
2023/09/03 04:49:07;;;;;;;6.63;2.70;;;;;;;;;;5095478;28;20179;-72
2023/09/03 04:52:11;;;;;;;8.13;3.13;;;;;;;;;;5095312;28;20222;-73
2023/09/03 04:55:15;;;;;;;7.63;3.00;;;;;;;;;;5095315;28;20179;-73
2023/09/03 04:58:20;;;;;;;10.13;3.13;;;;;;;;;;5095246;28;20191;-73
2023/09/03 05:01:24;;;;;;;7.33;2.93;;;;;;;;;;5096070;28;20179;-73
2023/09/03 05:04:33;;;;;;;10.70;3.37;;;;;;;;;;5095222;28;20175;-73
2023/09/03 05:07:37;;;;;;;13.67;3.37;;;;;;;;;;5083531;28;20178;-72
2023/09/03 05:10:41;;;;;;;9.80;2.83;;;;;;;;;;5095672;28;20198;-73
2023/09/03 05:13:47;;;;;;;14.17;3.40;;;;;;;;;;5094776;28;20227;-72
2023/09/03 05:16:52;;;;;;;11.47;3.20;;;;;;;;;;5094913;28;20183;-73
2023/09/03 05:19:57;;;;;;;18.60;3.87;;;;;;;;;;5094994;28;20543;-72
2023/09/03 05:23:01;;;;;;;14.83;3.43;;;;;;;;;;5095630;28;20210;-73
2023/09/03 05:26:05;;;;;;;13.00;3.27;;;;;;;;;;5095507;28;20183;-73
2023/09/03 05:29:10;;;;;;;9.87;3.17;;;;;;;;;;5094688;28;20179;-73
2023/09/03 05:32:14;;;;;;;10.77;3.93;;;;;;;;;;5094555;28;20215;-73
2023/09/03 05:35:18;;;;;;;11.47;4.40;;;;;;;;;;5095419;28;20206;-73
2023/09/03 05:38:22;;;;;;;40.90;6.07;;;;;;;;;;5094503;28;20692;-74
2023/09/03 05:41:27;;;;;;;10.43;3.33;;;;;;;;;;5094464;28;20194;-73
2023/09/03 05:44:31;;;;;;;12.83;3.77;;;;;;;;;;5094406;28;20191;-73
2023/09/03 05:47:35;;;;;;;10.17;4.07;;;;;;;;;;5094414;28;20170;-73
2023/09/03 05:50:41;;;;;;;15.10;4.60;;;;;;;;;;5094298;28;20182;-73
2023/09/03 05:53:45;;;;;;;13.53;3.60;;;;;;;;;;5093962;28;20582;-73
2023/09/03 05:56:49;;;;;;;13.73;3.90;;;;;;;;;;5094126;28;20178;-73
2023/09/03 05:59:54;;;;;;;9.07;3.70;;;;;;;;;;5094061;28;20183;-73
2023/09/03 06:02:58;;;;;;;5.40;3.30;;;;;;;;;;5094016;28;20693;-73
2023/09/03 06:06:04;;;;;;;8.43;4.00;;;;;;;;;;5094242;28;20183;-73
2023/09/03 06:09:09;;;;;;;12.07;4.03;;;;;;;;;;5093871;28;20179;-73
2023/09/03 06:12:13;;;;;;;4.87;2.90;;;;;;;;;;5094627;28;20206;-73
2023/09/03 06:15:18;;;;;;;18.07;5.10;;;;;;;;;;5094540;28;20203;-72
2023/09/03 06:18:22;;;;;;;21.50;5.07;;;;;;;;;;5094566;28;20183;-73
2023/09/03 06:21:28;;;;;;;12.93;5.40;;;;;;;;;;5090869;28;20191;-72
2023/09/03 06:24:33;;;;;;;12.87;5.30;;;;;;;;;;5083488;28;20926;-73
2023/09/03 06:27:37;;;;;;;15.33;4.93;;;;;;;;;;5085199;28;20182;-74
2023/09/03 06:30:42;;;;;;;9.67;5.03;;;;;;;;;;5084859;28;20273;-73
2023/09/03 06:33:46;;;;;;;6.20;4.30;;;;;;;;;;5084859;28;20215;-73
2023/09/03 06:36:50;;;;;;;8.50;5.77;;;;;;;;;;5083012;28;20183;-73
2023/09/03 06:39:54;;;;;;;7.47;5.87;;;;;;;;;;5083440;28;20507;-73
2023/09/03 06:42:58;;;;;;;9.60;4.63;;;;;;;;;;5083951;28;20219;-73
2023/09/03 06:46:02;;;;;;;7.60;5.03;;;;;;;;;;5083720;28;20639;-73
2023/09/03 06:49:07;;;;;;;6.60;4.27;;;;;;;;;;5082689;28;20183;-73
2023/09/03 06:52:11;;;;;;;4.97;4.53;;;;;;;;;;5081933;28;20179;-73
2023/09/03 06:55:15;;;;;;;7.20;4.63;;;;;;;;;;5083253;28;20207;-73
2023/09/03 06:58:19;;;;;;;7.80;4.13;;;;;;;;;;5073560;28;20180;-73
2023/09/03 07:01:23;;;;;;;4.43;2.97;;;;;;;;;;5073402;28;20187;-73
2023/09/03 07:04:28;;;;;;;13.03;3.63;;;;;;;;;;5073476;28;20180;-74
2023/09/03 07:07:32;;;;;;;4.63;3.00;;;;;;;;;;5072422;28;20242;-73
2023/09/03 07:10:36;;;;;;;52.30;5.23;;;;;;;;;;5073133;28;20195;-73
2023/09/03 07:13:41;;;;;;;4.83;3.30;;;;;;;;;;5073186;28;20215;-73
2023/09/03 07:16:45;;;;;;;2.57;2.37;;;;;;;;;;5073196;28;20175;-73
2023/09/03 07:19:53;;;;;;;18.37;3.00;;;;;;;;;;5073220;28;20183;-73
2023/09/03 07:22:57;;;;;;;6.50;3.40;;;;;;;;;;5073083;28;20211;-73
2023/09/03 07:26:05;;;;;;;21.60;3.60;;;;;;;;;;5073131;28;20511;-73
2023/09/03 07:29:09;;;;;;;2.87;2.27;;;;;;;;;;5073117;28;20658;-74
2023/09/03 07:32:14;;;;;;;5.97;2.83;;;;;;;;;;5072870;28;20219;-74
2023/09/03 07:35:18;;;;;;;8.20;3.20;;;;;;;;;;5072944;28;20215;-73
2023/09/03 07:38:25;;;;;;;11.57;3.63;;;;;;;;;;5073049;28;20631;-74
2023/09/03 07:41:29;;;;;;;13.23;3.23;;;;;;;;;;5072195;28;20175;-73
2023/09/03 07:44:33;;;;;;;4.83;2.90;;;;;;;;;;5072957;28;20179;-73
2023/09/03 07:47:37;;;;;;;4.13;2.53;;;;;;;;;;5072870;28;20179;-73
2023/09/03 07:50:41;;;;;;;4.47;3.10;;;;;;;;;;5072781;28;20670;-74
2023/09/03 07:53:49;;;;;;;7.17;2.90;;;;;;;;;;5072663;28;20211;-73
2023/09/03 07:56:57;;;;;;;2.53;2.13;;;;;;;;;;5072056;28;20187;-73
2023/09/03 08:00:01;;;;;;;9.00;2.33;;;;;;;;;;5072776;28;20175;-74
2023/09/03 08:03:05;;;;;;;6.40;2.70;;;;;;;;;;5072555;28;20550;-73
2023/09/03 08:06:10;;;;;;;3.07;2.30;;;;;;;;;;5072724;28;20172;-74
2023/09/03 08:09:14;;;;;;;10.33;2.80;;;;;;;;;;5072574;28;20181;-74
2023/09/03 08:12:18;;;;;;;8.70;3.00;;;;;;;;;;5072599;28;20221;-74
2023/09/03 08:15:22;;;;;;;4.90;2.60;;;;;;;;;;5060206;28;20216;-73
2023/09/03 08:18:27;;;;;;;4.30;2.60;;;;;;;;;;5074790;28;20192;-73
2023/09/03 08:21:31;;;;;;;5.83;2.47;;;;;;;;;;5076366;28;20197;-73
2023/09/03 08:24:35;;;;;;;6.60;3.83;;;;;;;;;;5052605;28;20174;-73
2023/09/03 08:27:40;;;;;;;4.60;3.07;;;;;;;;;;5076352;28;20179;-74
2023/09/03 08:30:44;;;;;;;7.90;2.60;;;;;;;;;;5076303;28;20187;-74
2023/09/03 08:33:53;;;;;;;16.70;2.73;;;;;;;;;;5075189;28;20217;-74
2023/09/03 08:36:57;;;;;;;1.90;1.40;;;;;;;;;;5076259;28;20179;-74
2023/09/03 08:40:02;;;;;;;4.23;1.80;;;;;;;;;;5076043;28;20197;-74
2023/09/03 08:43:08;;;;;;;38.73;3.27;;;;;;;;;;5075831;28;20214;-74
2023/09/03 08:46:14;;;;;;;2.70;1.63;;;;;;;;;;5076183;28;20187;-74
2023/09/03 08:49:19;;;;;;;17.60;1.90;;;;;;;;;;5075890;28;20176;-74
2023/09/03 08:52:24;;;;;;;2.10;1.38;;;;;;;;;;5075859;28;20216;-73
2023/09/03 08:55:29;;;;;;;2.83;1.50;;;;;;;;;;5074835;28;20212;-74
2023/09/03 08:58:34;;;;;;;3.40;1.33;;;;;;;;;;5075657;28;20648;-74
2023/09/03 09:01:39;;;;;;;2.78;1.40;;;;;;;;;;5075589;28;20185;-73
2023/09/03 09:04:43;;;;;;;10.80;2.15;;;;;;;;;;5075660;28;20178;-74
2023/09/03 09:07:48;;;;;;;43.17;3.97;;;;;;;;;;5075483;28;20181;-74
2023/09/03 09:10:53;;;;;;;16.90;2.35;;;;;;;;;;5075440;28;20198;-74
2023/09/03 09:13:59;;;;;;;35.38;2.92;;;;;;;;;;5075480;28;20590;-73
2023/09/03 09:17:11;;;;;;;29.67;7.40;;;;;;;;;;5075336;28;20188;-74
2023/09/03 09:20:16;;;;;;;76.72;12.23;;;;;;;;;;5074340;28;20177;-74
2023/09/03 09:23:24;;;;;;;36.78;20.30;;;;;;;;;;5075039;28;20715;-74
2023/09/03 09:26:32;;;;;;;23.27;10.85;;;;;;;;;;5075458;28;20182;-73
2023/09/03 09:29:36;;;;;;;26.52;12.30;;;;;;;;;;5074280;28;20184;-74
2023/09/03 09:32:41;;;;;;;28.85;20.65;;;;;;;;;;5075057;28;20710;-74
2023/09/03 09:35:46;;;;;;;19.63;14.45;;;;;;;;;;5075068;28;20222;-74
2023/09/03 09:38:51;;;;;;;3.85;2.00;;;;;;;;;;5075082;28;20648;-74
2023/09/03 09:42:07;;;;;;;1.50;1.10;;;;;;;;;;5074931;28;20185;-74
2023/09/03 09:45:11;;;;;;;25.25;2.33;;;;;;;;;;5074926;28;20175;-74
2023/09/03 09:48:16;;;;;;;1.92;1.70;;;;;;;;;;5074882;28;20523;-74
2023/09/03 09:51:20;;;;;;;2.97;1.00;;;;;;;;;;5074860;28;20177;-74
2023/09/03 09:54:24;;;;;;;28.25;2.45;;;;;;;;;;5074745;28;20186;-74
2023/09/03 09:57:28;;;;;;;8.65;1.50;;;;;;;;;;5074645;28;20195;-74
2023/09/03 10:00:37;;;;;;;3.42;1.02;;;;;;;;;;5074626;28;20658;-74
2023/09/03 10:03:46;;;;;;;1.20;0.98;;;;;;;;;;5073689;28;20214;-74
2023/09/03 10:06:51;;;;;;;1.08;1.00;;;;;;;;;;5074596;28;20178;-73
2023/09/03 10:09:55;;;;;;;1.88;0.90;;;;;;;;;;5074313;28;20199;-73
2023/09/03 10:13:02;;;;;;;29.40;2.72;;;;;;;;;;5074299;28;20221;-74
2023/09/03 10:16:07;;;;;;;6.60;1.20;;;;;;;;;;5074227;28;20206;-75
2023/09/03 10:19:15;;;;;;;4.18;1.00;;;;;;;;;;5074186;28;20180;-74
2023/09/03 10:22:23;;;;;;;2.10;0.88;;;;;;;;;;5074149;28;20678;-75
2023/09/03 10:25:29;;;;;;;62.72;3.63;;;;;;;;;;5074103;28;20180;-75
2023/09/03 10:28:38;;;;;;;1.63;1.38;;;;;;;;;;5074131;28;20517;-74
2023/09/03 10:31:43;;;;;;;1.52;1.42;;;;;;;;;;5073994;28;20180;-74
2023/09/03 10:34:47;;;;;;;1.20;1.10;;;;;;;;;;5073912;28;20172;-74
2023/09/03 10:37:51;;;;;;;3.75;1.13;;;;;;;;;;5073868;28;20659;-74
2023/09/03 10:41:18;;;;;;;1.50;0.98;;;;;;;;;;5073606;28;20196;-75
2023/09/03 10:44:31;;;;;;;3.03;0.73;;;;;;;;;;5073823;28;20524;-73
2023/09/03 10:47:59;;;;;;;0.82;0.82;;;;;;;;;;5073672;28;20647;-74
2023/09/03 10:51:04;;;;;;;0.90;0.80;;;;;;;;;;5073761;28;20180;-74
2023/09/03 10:54:19;;;;;;;1.60;0.90;;;;;;;;;;5073435;28;20214;-74
2023/09/03 10:57:24;;;;;;;1.35;0.90;;;;;;;;;;5073105;28;20186;-74
2023/09/03 11:00:29;;;;;;;2.38;1.00;;;;;;;;;;5073552;28;20186;-74
2023/09/03 11:03:45;;;;;;;1.25;0.98;;;;;;;;;;5073077;28;20219;-74
2023/09/03 11:07:22;;;;;;;20.30;1.48;;;;;;;;;;5073352;28;20181;-74
2023/09/03 11:10:29;;;;;;;1.38;1.08;;;;;;;;;;5073239;28;20207;-73
2023/09/03 11:13:33;;;;;;;1.00;0.80;;;;;;;;;;5073209;28;20543;-74
2023/09/03 11:16:42;;;;;;;1.30;0.77;;;;;;;;;;5073286;28;20548;-74
2023/09/03 11:19:46;;;;;;;115.65;6.07;;;;;;;;;;5073302;28;20526;-74
2023/09/03 11:22:50;;;;;;;7.20;1.00;;;;;;;;;;5073183;28;20581;-74
2023/09/03 11:25:54;;;;;;;1.67;0.95;;;;;;;;;;5072363;28;20528;-74
2023/09/03 11:29:00;;;;;;;5.50;1.20;;;;;;;;;;5073144;28;20527;-74
2023/09/03 11:32:05;;;;;;;28.35;2.55;;;;;;;;;;5073042;28;20573;-74
2023/09/03 11:35:09;;;;;;;1.52;1.05;;;;;;;;;;5072878;28;20224;-74
2023/09/03 11:38:14;;;;;;;2.97;0.90;;;;;;;;;;5072220;28;20523;-75
2023/09/03 11:41:18;;;;;;;1.10;1.00;;;;;;;;;;5072999;28;20193;-74
2023/09/03 11:44:23;;;;;;;1.08;0.90;;;;;;;;;;5072903;28;20194;-74
2023/09/03 11:47:27;;;;;;;3.47;1.10;;;;;;;;;;5072929;28;20186;-74
2023/09/03 11:50:34;;;;;;;1.55;0.85;;;;;;;;;;5072964;28;20175;-74
2023/09/03 11:53:41;;;;;;;18.23;1.88;;;;;;;;;;5075371;28;20219;-75
2023/09/03 11:56:45;;;;;;;2.97;1.10;;;;;;;;;;5076908;28;20204;-74
2023/09/03 11:59:49;;;;;;;0.93;0.82;;;;;;;;;;5077066;28;20167;-74
2023/09/03 12:02:54;;;;;;;1.75;0.75;;;;;;;;;;5076830;28;20692;-74
2023/09/03 12:05:58;;;;;;;0.93;0.82;;;;;;;;;;5076864;28;20626;-74
2023/09/03 12:09:02;;;;;;;15.07;1.27;;;;;;;;;;5076763;28;20167;-73
2023/09/03 12:12:08;;;;;;;3.03;0.80;;;;;;;;;;5076618;28;20527;-74
2023/09/03 12:15:20;;;;;;;0.63;0.60;;;;;;;;;;5075975;28;20178;-74
2023/09/03 12:18:25;;;;;;;2.55;0.80;;;;;;;;;;5076777;28;20198;-74
2023/09/03 12:21:36;;;;;;;30.95;2.30;;;;;;;;;;5076675;28;20174;-73
2023/09/03 12:24:40;;;;;;;0.80;0.60;;;;;;;;;;5076650;28;20199;-74
2023/09/03 12:27:50;;;;;;;11.30;1.52;;;;;;;;;;5075805;28;20633;-74
2023/09/03 12:30:57;;;;;;;3.33;0.70;;;;;;;;;;5076531;28;20550;-75
2023/09/03 12:34:01;;;;;;;2.55;0.85;;;;;;;;;;5076224;28;20222;-74
2023/09/03 12:37:07;;;;;;;0.80;0.77;;;;;;;;;;5076213;28;20203;-74
2023/09/03 12:40:13;;;;;;;33.00;1.80;;;;;;;;;;5076165;28;20191;-75
2023/09/03 12:43:17;;;;;;;44.03;2.40;;;;;;;;;;5076342;28;20583;-74
2023/09/03 12:46:23;;;;;;;31.38;2.33;;;;;;;;;;5076246;28;20188;-74
2023/09/03 12:49:27;;;;;;;2.25;0.80;;;;;;;;;;5076145;28;20673;-75
2023/09/03 12:52:31;;;;;;;3.13;0.80;;;;;;;;;;5075991;28;20220;-75
2023/09/03 12:55:36;;;;;;;1.17;0.77;;;;;;;;;;5075929;28;20223;-74
2023/09/03 12:58:41;;;;;;;8.50;1.10;;;;;;;;;;5076010;28;20176;-74
2023/09/03 13:01:45;;;;;;;0.93;0.82;;;;;;;;;;5076423;28;20183;-74
2023/09/03 13:04:50;;;;;;;5.72;1.15;;;;;;;;;;5076093;28;20626;-75
2023/09/03 13:07:54;;;;;;;28.83;2.28;;;;;;;;;;5086165;28;20176;-74
2023/09/03 13:11:01;;;;;;;2.25;0.80;;;;;;;;;;5085241;28;20205;-74
2023/09/03 13:14:05;;;;;;;5.50;0.95;;;;;;;;;;5085339;28;20563;-74
2023/09/03 13:17:10;;;;;;;5.65;1.15;;;;;;;;;;5085798;28;20203;-74
2023/09/03 13:20:14;;;;;;;0.90;0.65;;;;;;;;;;5086580;28;20180;-74
2023/09/03 13:23:18;;;;;;;9.65;1.60;;;;;;;;;;5086509;28;20691;-74
2023/09/03 13:26:22;;;;;;;1.73;0.90;;;;;;;;;;5084631;28;20175;-74
2023/09/03 13:29:26;;;;;;;1.65;0.90;;;;;;;;;;5085120;28;20185;-75
2023/09/03 13:32:31;;;;;;;1.20;0.70;;;;;;;;;;5085410;28;20222;-74
2023/09/03 13:35:36;;;;;;;4.85;1.15;;;;;;;;;;5082579;28;20190;-74
2023/09/03 13:38:40;;;;;;;3.17;1.00;;;;;;;;;;5084032;28;20185;-73
2023/09/03 13:41:45;;;;;;;8.90;1.10;;;;;;;;;;5084636;28;20183;-73
2023/09/03 13:44:55;;;;;;;2.00;0.93;;;;;;;;;;5085288;28;20179;-73
2023/09/03 13:47:59;;;;;;;1.83;0.90;;;;;;;;;;5085889;28;20190;-74
2023/09/03 13:51:10;;;;;;;1.30;0.88;;;;;;;;;;5084435;28;20176;-73
2023/09/03 13:54:15;;;;;;;1.52;0.90;;;;;;;;;;5084921;28;20221;-74
2023/09/03 13:57:19;;;;;;;1.55;0.95;;;;;;;;;;5085605;28;20203;-73
2023/09/03 14:00:25;;;;;;;2.90;1.10;;;;;;;;;;5084086;28;20523;-74
2023/09/03 14:03:29;;;;;;;4.57;0.80;;;;;;;;;;5084726;28;20227;-73
2023/09/03 14:06:34;;;;;;;4.47;0.95;;;;;;;;;;5085278;28;20185;-73
2023/09/03 14:09:38;;;;;;;3.33;1.00;;;;;;;;;;5073270;28;20200;-74
2023/09/03 14:12:43;;;;;;;49.88;3.13;;;;;;;;;;5083693;28;20705;-73
2023/09/03 14:15:47;;;;;;;3.95;0.95;;;;;;;;;;5083727;28;20190;-74
2023/09/03 14:18:51;;;;;;;5.97;1.05;;;;;;;;;;5084778;28;20178;-74
2023/09/03 14:21:55;;;;;;;1.23;0.80;;;;;;;;;;5085309;28;20191;-73
2023/09/03 14:24:59;;;;;;;21.08;2.13;;;;;;;;;;5084405;28;20181;-74
2023/09/03 14:28:04;;;;;;;2.83;1.00;;;;;;;;;;5083569;28;20175;-74
2023/09/03 14:31:09;;;;;;;5.00;0.85;;;;;;;;;;5084245;28;20639;-74
2023/09/03 14:34:13;;;;;;;27.60;1.80;;;;;;;;;;5084175;28;20570;-74
2023/09/03 14:37:18;;;;;;;16.52;1.30;;;;;;;;;;5085018;28;20201;-74
2023/09/03 14:40:22;;;;;;;4.10;0.80;;;;;;;;;;5083043;28;20627;-74
2023/09/03 14:43:26;;;;;;;0.90;0.70;;;;;;;;;;5079923;28;20211;-74
2023/09/03 14:46:30;;;;;;;1.52;0.90;;;;;;;;;;5084178;28;20178;-74
2023/09/03 14:49:39;;;;;;;0.70;0.60;;;;;;;;;;5084864;28;20190;-74
2023/09/03 14:52:44;;;;;;;1.23;0.82;;;;;;;;;;5082837;28;20221;-74
2023/09/03 14:55:49;;;;;;;15.88;1.58;;;;;;;;;;5083597;28;20187;-74
2023/09/03 14:58:53;;;;;;;4.90;0.90;;;;;;;;;;5083354;28;20187;-75
2023/09/03 15:01:56;;;;;;;2.65;0.80;;;;;;;;;;5084574;28;20187;-74
2023/09/03 15:05:01;;;;;;;1.45;0.73;;;;;;;;;;5084557;28;20171;-74
2023/09/03 15:08:05;;;;;;;9.38;1.13;;;;;;;;;;5082933;28;20187;-74
2023/09/03 15:11:15;;;;;;;10.38;1.63;;;;;;;;;;5083592;28;20194;-73
2023/09/03 15:14:19;;;;;;;28.70;2.28;;;;;;;;;;5084323;28;20632;-75
2023/09/03 15:17:23;;;;;;;11.55;1.30;;;;;;;;;;5082424;28;20211;-74
2023/09/03 15:20:29;;;;;;;3.25;1.05;;;;;;;;;;5083034;28;20194;-74
2023/09/03 15:23:33;;;;;;;3.30;0.85;;;;;;;;;;5083749;28;20565;-73
2023/09/03 15:26:38;;;;;;;7.57;1.20;;;;;;;;;;5083643;28;20637;-74
2023/09/03 15:29:42;;;;;;;1.95;1.00;;;;;;;;;;5082058;28;20181;-74
2023/09/03 15:32:46;;;;;;;40.97;3.00;;;;;;;;;;5082508;28;20559;-75
2023/09/03 15:35:51;;;;;;;10.38;1.40;;;;;;;;;;5083177;28;20182;-74
2023/09/03 15:38:56;;;;;;;41.05;3.42;;;;;;;;;;5086731;28;20197;-73
2023/09/03 15:42:00;;;;;;;2.42;0.90;;;;;;;;;;5093167;28;20568;-74
2023/09/03 15:45:04;;;;;;;1.40;1.00;;;;;;;;;;5093225;28;20196;-74
2023/09/03 15:48:08;;;;;;;1.67;1.10;;;;;;;;;;5093313;28;20173;-74
2023/09/03 15:51:13;;;;;;;3.25;1.13;;;;;;;;;;5092446;28;20182;-73
2023/09/03 15:54:18;;;;;;;1.00;0.90;;;;;;;;;;5093019;28;20687;-73
2023/09/03 15:57:22;;;;;;;5.35;1.20;;;;;;;;;;5093114;28;20212;-74
2023/09/03 16:00:27;;;;;;;2.75;1.00;;;;;;;;;;5093137;28;20192;-74
2023/09/03 16:03:32;;;;;;;15.63;7.53;;;;;;;;;;5092227;28;20218;-74
2023/09/03 16:06:36;;;;;;;136.70;90.05;;;;;;;;;;5093029;28;20171;-73
2023/09/03 16:09:40;;;;;;;152.50;99.53;;;;;;;;;;5092679;28;20228;-74
2023/09/03 16:12:45;;;;;;;1999.90;999.90;;;;;;;;;;5092767;28;20224;-73
2023/09/03 16:15:49;;;;;;;107.45;90.25;;;;;;;;;;5092905;28;20183;-74
2023/09/03 16:18:53;;;;;;;78.93;32.67;;;;;;;;;;5091614;28;20693;-73
2023/09/03 16:21:57;;;;;;;24.73;5.70;;;;;;;;;;5091553;28;20689;-74
2023/09/03 16:25:02;;;;;;;24.93;2.83;;;;;;;;;;5091456;28;20686;-74
2023/09/03 16:28:06;;;;;;;67.07;46.58;;;;;;;;;;5092788;28;20187;-74
2023/09/03 16:31:11;;;;;;;30.83;25.35;;;;;;;;;;5092710;28;20201;-74
2023/09/03 16:34:15;;;;;;;21.92;18.23;;;;;;;;;;5092695;28;20237;-73
2023/09/03 16:37:20;;;;;;;1018.53;718.80;;;;;;;;;;5092276;28;20237;-74
2023/09/03 16:40:24;;;;;;;482.13;410.35;;;;;;;;;;5096044;28;20781;-74
2023/09/03 16:43:28;;;;;;;337.83;265.50;;;;;;;;;;5096465;28;20289;-74
2023/09/03 16:46:32;;;;;;;133.90;91.70;;;;;;;;;;5095566;28;20196;-74
2023/09/03 16:49:40;;;;;;;31.50;23.47;;;;;;;;;;5096403;28;20202;-73
2023/09/03 16:52:44;;;;;;;26.33;21.43;;;;;;;;;;5095506;28;20215;-74
2023/09/03 16:55:48;;;;;;;15.40;12.23;;;;;;;;;;5096221;28;20204;-73
2023/09/03 16:58:51;;;;;;;5.03;2.00;;;;;;;;;;5096228;28;20188;-74
2023/09/03 17:01:55;;;;;;;5.43;1.60;;;;;;;;;;5096137;28;20191;-73
2023/09/03 17:04:59;;;;;;;2.30;1.40;;;;;;;;;;5096158;28;20177;-74
2023/09/03 17:08:06;;;;;;;15.13;1.87;;;;;;;;;;5096354;28;20179;-73
2023/09/03 17:11:10;;;;;;;116.03;6.27;;;;;;;;;;5096260;28;20671;-73
2023/09/03 17:14:15;;;;;;;187.03;11.57;;;;;;;;;;5095048;28;20222;-73
2023/09/03 17:17:19;;;;;;;99.27;6.50;;;;;;;;;;5095781;28;20210;-74
2023/09/03 17:20:23;;;;;;;38.97;3.17;;;;;;;;;;5095783;28;20176;-73
2023/09/03 17:23:27;;;;;;;72.53;4.83;;;;;;;;;;5095928;28;20213;-74
2023/09/03 17:26:32;;;;;;;39.20;2.73;;;;;;;;;;5095695;28;20183;-73
2023/09/03 17:29:36;;;;;;;18.70;2.23;;;;;;;;;;5095697;28;20170;-74
2023/09/03 17:32:40;;;;;;;11.53;2.20;;;;;;;;;;5094697;28;20560;-74
2023/09/03 17:35:45;;;;;;;30.43;3.07;;;;;;;;;;5095459;28;20176;-74
2023/09/03 17:38:49;;;;;;;31.27;2.63;;;;;;;;;;5095541;28;20199;-74
2023/09/03 17:41:53;;;;;;;9.80;1.97;;;;;;;;;;5095423;28;20178;-74
2023/09/03 17:44:59;;;;;;;5.33;1.60;;;;;;;;;;5095364;28;20180;-75
2023/09/03 17:48:03;;;;;;;6.60;1.80;;;;;;;;;;5094537;28;20167;-74
2023/09/03 17:51:07;;;;;;;8.40;2.07;;;;;;;;;;5094291;28;20184;-74
2023/09/03 17:54:11;;;;;;;7.87;2.10;;;;;;;;;;5095603;28;20211;-74
2023/09/03 17:57:16;;;;;;;1.70;1.60;;;;;;;;;;5094994;28;20206;-74
2023/09/03 18:00:20;;;;;;;2.50;1.73;;;;;;;;;;5095018;28;20183;-74
2023/09/03 18:03:24;;;;;;;3.90;1.80;;;;;;;;;;5095051;28;20555;-74
2023/09/03 18:06:28;;;;;;;4.73;1.93;;;;;;;;;;5094930;28;20179;-74
2023/09/03 18:09:32;;;;;;;2.87;2.00;;;;;;;;;;5094647;28;20186;-75
2023/09/03 18:12:36;;;;;;;2.83;2.00;;;;;;;;;;5094654;28;20210;-74
2023/09/03 18:15:40;;;;;;;4.13;2.43;;;;;;;;;;5094672;28;20633;-74
2023/09/03 18:18:45;;;;;;;4.60;2.10;;;;;;;;;;5094519;28;20199;-74
2023/09/03 18:21:49;;;;;;;5.20;1.80;;;;;;;;;;5093782;28;20634;-73
2023/09/03 18:24:53;;;;;;;2.43;2.20;;;;;;;;;;5094428;28;20179;-74
2023/09/03 18:27:57;;;;;;;3.43;1.53;;;;;;;;;;5094447;28;20179;-74